CSUN New Campus Station -PST Time - Most Recent Data on bottom of page




           Date/Time      Avg      Avg      Max     Wind      Avg      Max      Min      Avg      Avg    Total      Avg     Batt
                         Wind     Wind     Wind      Dir     Temp     Temp     Temp       RH      Bar     Rain    Solar     Volt
                      Spd MPH      Dir  Spd MPH   at Max    Deg_F    Deg_F    Deg_F        % Press_mb   Inches     W/m2      Min
--------------------------------------------------------------------------------------------------------------------------------
    06/18/2018 00:00      1.4      272      3.7      279     58.2     58.5     58.0       73     1014     0.00        0     13.3
    06/18/2018 00:15      2.1      255      4.4      251     58.2     58.3     58.0       74     1014     0.00        0     13.3
    06/18/2018 00:30      1.5      252      4.2      255     58.4     58.8     58.1       73     1014     0.00        0     13.3
    06/18/2018 00:45      2.5      262      4.9      263     58.5     58.8     58.3       72     1014     0.00        0     13.3
    06/18/2018 01:00      1.9      263      5.3      262     58.5     58.8     58.3       72     1014     0.00        0     13.3
    06/18/2018 01:15      2.9      197      5.4      196     58.4     58.8     58.0       74     1014     0.00        0     13.3
    06/18/2018 01:30      2.9      199      5.5      199     58.2     58.4     58.0       73     1014     0.00        0     13.3
    06/18/2018 01:45      1.7      224      4.2      196     58.1     58.3     57.9       73     1014     0.00        0     13.3
    06/18/2018 02:00      1.8      224      4.6      204     58.0     58.2     57.8       73     1014     0.00        0     13.3
    06/18/2018 02:15      1.5      229      2.9      183     58.0     58.3     57.8       73     1014     0.00        0     13.3
    06/18/2018 02:30      2.1      237      4.7      231     58.1     58.3     58.0       72     1014     0.00        0     13.3
    06/18/2018 02:45      2.0      229      5.3      263     58.2     58.4     58.0       72     1014     0.00        0     13.3
    06/18/2018 03:00      0.8      221      4.6      260     58.2     58.4     58.0       72     1014     0.00        0     13.3
    06/18/2018 03:15      0.9      249      2.9      258     58.0     58.3     57.7       72     1014     0.00        0     13.3
    06/18/2018 03:30      2.0      252      4.1      254     57.9     58.2     57.7       72     1014     0.00        0     13.3
    06/18/2018 03:45      2.1      237      4.6      270     58.2     58.5     58.0       72     1014     0.00        0     13.3
    06/18/2018 04:00      1.4      214      3.3      211     57.9     58.3     57.4       73     1013     0.00        0     13.3
    06/18/2018 04:15      1.4      192      3.1      187     57.2     57.6     56.9       74     1014     0.00        0     13.3
    06/18/2018 04:30      1.2      213      2.4      191     56.9     57.2     56.6       75     1014     0.00        0     13.3
    06/18/2018 04:45      1.4      222      3.3      203     56.7     56.9     56.5       75     1014     0.00        2     13.3
    06/18/2018 05:00      1.2      247      3.4      254     56.6     56.9     56.3       75     1014     0.00        8     13.3
    06/18/2018 05:15      1.5      245      3.8      266     56.4     56.6     56.3       76     1014     0.00       17     13.3
    06/18/2018 05:30      2.0      250      4.1      254     56.5     56.8     56.3       76     1014     0.00       26     13.3
    06/18/2018 05:45      2.4      257      4.1      266     56.9     57.4     56.5       74     1014     0.00       36     13.3
    06/18/2018 06:00      1.9      252      4.9      250     58.1     59.1     57.2       69     1014     0.00      133     13.3
    06/18/2018 06:15      2.6      252      5.0      246     59.8     60.3     58.9       65     1014     0.00      176     13.3
    06/18/2018 06:30      2.3      243      4.8      251     61.0     62.2     60.2       59     1014     0.00      227     13.3
    06/18/2018 06:45      3.1      262      6.7      255     62.2     62.7     61.8       58     1015     0.00      277     13.2
    06/18/2018 07:00      2.6      238      6.5      240     63.1     63.7     62.5       56     1015     0.00      328     13.2
    06/18/2018 07:15      2.3      239      4.7      281     63.3     64.0     62.5       56     1015     0.00      309     13.2
    06/18/2018 07:30      3.4      224      6.2      285     63.6     64.6     63.0       53     1015     0.00      423     13.2
    06/18/2018 07:45      2.9      264      6.8      258     64.7     65.2     64.3       53     1015     0.00      498     13.1
    06/18/2018 08:00      2.5      235      6.5      162     65.2     65.6     64.9       51     1015     0.00      519     13.1
    06/18/2018 08:15      1.4      144      5.5      162     65.9     66.7     65.3       50     1015     0.00      579     13.1
    06/18/2018 08:30      1.5       56      4.7      166     67.0     67.5     66.4       49     1015     0.00      611     13.1
    06/18/2018 08:45      2.8      251      6.0      239     67.3     68.3     66.3       51     1015     0.00      647     13.1
    06/18/2018 09:00      2.8      144      6.9      115     67.2     68.1     66.3       50     1015     0.00      686     13.1
    06/18/2018 09:15      2.3      258      4.8      206     67.8     68.7     66.9       48     1015     0.00      722     13.1
    06/18/2018 09:30      2.8      129      5.8      138     67.9     68.9     67.0       47     1015     0.00      753     13.1
    06/18/2018 09:45      3.6      164      9.9      161     69.6     70.5     68.8       44     1015     0.00      788     13.1
    06/18/2018 10:00      3.8      145     10.8      154     70.5     72.0     69.2       44     1015     0.00      814     13.1
    06/18/2018 10:15      2.7      166      8.8      177     71.7     72.8     70.5       43     1015     0.00      841     13.0
    06/18/2018 10:30      2.7      214      7.2      184     71.6     72.9     70.9       42     1015     0.00      863     13.0
    06/18/2018 10:45      3.2      161      9.1      171     73.0     74.3     71.2       40     1014     0.00      882     13.0
    06/18/2018 11:00      2.5       28      6.4      167     73.5     74.8     72.5       39     1014     0.00      895     13.0
    06/18/2018 11:15      4.5      135     11.0      136     73.5     74.0     72.7       42     1014     0.00      905     13.0
    06/18/2018 11:30      5.8      127     13.1      146     73.7     74.8     72.9       41     1014     0.00      911     13.0
    06/18/2018 11:45      6.0      144     11.4      157     74.2     74.8     73.8       43     1014     0.00      917     13.0
    06/18/2018 12:00      5.7      145     11.1      158     74.3     74.9     73.8       41     1014     0.00      921     13.0
    06/18/2018 12:15      4.2      108      9.5       93     73.7     74.2     72.9       40     1014     0.00      921     13.0
    06/18/2018 12:30      4.4      117     10.6      160     74.0     74.9     73.4       40     1014     0.00      918     13.0
    06/18/2018 12:45      4.4      132     11.4      158     74.1     75.0     73.0       40     1014     0.00      911     13.0
    06/18/2018 13:00      4.3      152      9.6       97     74.3     74.8     73.5       42     1014     0.00      902     13.0
    06/18/2018 13:15      3.8      139      9.0      167     75.5     76.5     73.8       39     1014     0.00      889     13.0
    06/18/2018 13:30      5.4      156     11.6      196     75.6     76.7     74.7       39     1014     0.00      872     13.0
    06/18/2018 13:45      2.3      190     11.1      167     76.1     77.3     75.0       36     1014     0.00      853     13.0
    06/18/2018 14:00      4.5      202     11.7      164     77.1     77.8     76.5       36     1013     0.00      827     13.0
    06/18/2018 14:15      5.1      178     10.8      202     76.4     77.3     75.6       38     1013     0.00      798     13.0
    06/18/2018 14:30      5.2      133     10.7      185     76.6     77.3     75.5       39     1013     0.00      743     13.0
    06/18/2018 14:45      5.6      136     11.4      162     76.8     77.9     75.9       37     1013     0.00      734     13.0
    06/18/2018 15:00      5.5      119     13.4      155     76.3     76.6     76.0       36     1013     0.00      697     13.0
    06/18/2018 15:15      5.7      100     11.2       62     75.7     76.4     74.6       38     1013     0.00      660     13.0
    06/18/2018 15:30      5.1      111     11.8       96     75.4     76.1     74.6       36     1013     0.00      619     13.0
    06/18/2018 15:45      4.8       98     11.3       78     75.3     75.8     74.6       37     1013     0.00      577     13.0
    06/18/2018 16:00      4.6      126      9.4        9     75.1     75.8     74.3       36     1013     0.00      535     13.0
    06/18/2018 16:15      4.0      113      9.3      114     74.8     75.4     74.1       38     1013     0.00      489     13.0
    06/18/2018 16:30      4.1      113     13.6       91     74.7     75.0     74.2       39     1013     0.00      442     13.0
    06/18/2018 16:45      3.5      118      9.7       92     74.7     75.0     74.2       39     1013     0.00      394     13.0
    06/18/2018 17:00      4.0      101      9.5       94     74.0     74.4     73.7       39     1013     0.00      345     13.0
    06/18/2018 17:15      4.0      112      7.9       83     73.8     74.2     73.3       41     1013     0.00      297     13.0
    06/18/2018 17:30      3.6      100      6.8       83     72.9     73.4     72.5       41     1013     0.00      203     13.0
    06/18/2018 17:45      3.5      108      7.7       87     72.3     72.7     71.9       42     1013     0.00       40     13.0
    06/18/2018 18:00      3.5       93      7.8       98     71.5     72.3     70.8       43     1013     0.00       36     13.0
    06/18/2018 18:15      3.5       95      7.7       94     70.8     71.1     70.5       44     1013     0.00       30     13.1
    06/18/2018 18:30      3.3       96      7.5       80     70.3     70.7     69.8       45     1013     0.00       26     13.1
    06/18/2018 18:45      2.5      107      7.5       72     69.6     70.1     69.0       46     1013     0.00       25     13.1
    06/18/2018 19:00      2.7       99      6.8       92     68.7     69.2     68.1       47     1013     0.00       11     13.1
    06/18/2018 19:15      3.0      105      6.3       93     67.8     68.3     67.3       49     1013     0.00        4     13.1
    06/18/2018 19:30      1.9       97      5.4       85     67.1     67.5     66.8       49     1014     0.00        0     13.1
    06/18/2018 19:45      2.1      104      5.8       93     66.7     67.0     66.3       50     1014     0.00        0     13.2
    06/18/2018 20:00      2.1       80      3.9       51     66.2     66.5     66.0       51     1014     0.00        0     13.2
    06/18/2018 20:15      2.3       68      3.9       48     65.8     66.2     65.5       52     1014     0.00        0     13.2
    06/18/2018 20:30      1.6       79      3.9       49     65.5     65.7     65.3       53     1014     0.00        0     13.2
    06/18/2018 20:45      2.2       78      3.8       75     65.2     65.5     64.9       53     1014     0.00        0     13.2
    06/18/2018 21:00      1.5      102      3.6       99     64.7     65.1     64.3       55     1014     0.00        0     13.2
    06/18/2018 21:15      2.3       82      4.2       73     64.0     64.3     63.5       55     1014     0.00        0     13.2
    06/18/2018 21:30      2.2       80      3.9       86     63.3     63.8     63.0       56     1014     0.00        0     13.2
    06/18/2018 21:45      1.6       77      2.8      100     62.9     63.2     62.6       58     1014     0.00        0     13.2
    06/18/2018 22:00      1.4       77      2.5       62     62.6     62.9     62.2       58     1014     0.00        0     13.2
    06/18/2018 22:15      1.2       74      2.2       74     62.2     62.5     61.8       59     1014     0.00        0     13.2
    06/18/2018 22:30      1.0       72      2.0       67     61.9     62.1     61.6       59     1014     0.00        0     13.2
    06/18/2018 22:45      1.6       71      2.6       57     61.8     62.0     61.5       60     1014     0.00        0     13.3
    06/18/2018 23:00      1.4       84      2.5       82     61.5     61.7     61.2       61     1014     0.00        0     13.3
    06/18/2018 23:15      0.8      101      1.6       55     60.9     61.3     60.2       64     1014     0.00        0     13.3
    06/18/2018 23:30      1.2      151      2.5      154     59.9     60.3     59.5       65     1014     0.00        0     13.3
    06/18/2018 23:45      1.1      141      2.6      140     59.5     59.7     59.2       65     1014     0.00        0     13.3
    06/19/2018 00:00      0.1      122      1.6      137     59.2     59.5     59.1       65     1014     0.00        0     13.3
    06/19/2018 00:15      0.3       65      1.7       80     59.1     59.4     58.9       66     1014     0.00        0     13.3
    06/19/2018 00:30      0.6      115      1.7       58     59.4     59.8     58.8       66     1014     0.00        0     13.3
    06/19/2018 00:45      0.8      146      2.1      143     58.6     59.1     58.2       68     1013     0.00        0     13.3
    06/19/2018 01:00      0.4      155      1.7      166     58.1     58.4     57.8       69     1013     0.00        0     13.3
    06/19/2018 01:15      0.1      153      0.7      157     57.7     58.1     57.3       70     1013     0.00        0     13.3
    06/19/2018 01:30      0.9      153      1.6      173     57.2     57.5     57.0       73     1013     0.00        0     13.3
    06/19/2018 01:45      0.4      145      1.6      138     57.0     57.3     56.8       75     1013     0.00        0     13.3
    06/19/2018 02:00      0.3      169      1.0      175     57.0     57.3     56.7       75     1013     0.00        0     13.3
    06/19/2018 02:15      0.2      159      1.2      162     56.9     57.2     56.5       74     1013     0.00        0     13.3
    06/19/2018 02:30      0.4       80      2.0       62     56.6     57.0     56.4       76     1013     0.00        0     13.3
    06/19/2018 02:45      1.4       78      2.3       73     57.3     57.7     56.9       74     1013     0.00        0     13.3
    06/19/2018 03:00      1.9       75      3.7       71     57.5     57.7     57.3       77     1013     0.00        0     13.3
    06/19/2018 03:15      1.5       67      2.8       47     57.3     57.6     57.1       79     1013     0.00        0     13.3
    06/19/2018 03:30      0.7       40      1.9       29     56.9     57.2     56.5       79     1013     0.00        0     13.3
    06/19/2018 03:45      0.4      324      0.9       34     56.3     56.7     55.8       80     1013     0.00        0     13.3
    06/19/2018 04:00      0.4      309      0.9      293     55.8     56.0     55.5       82     1013     0.00        0     13.3
    06/19/2018 04:15      0.0      323      0.8      326     55.6     55.9     55.3       82     1013     0.00        0     13.3
    06/19/2018 04:30      0.1       65      1.4       76     55.0     55.4     54.6       82     1014     0.00        0     13.3
    06/19/2018 04:45      1.9       51      3.3       52     55.4     56.0     54.6       83     1014     0.00        2     13.4
    06/19/2018 05:00      1.7       58      2.9       38     56.1     56.4     55.9       83     1014     0.00        6     13.3
    06/19/2018 05:15      1.8       66      3.3       86     56.4     56.8     56.1       84     1014     0.00       16     13.3
    06/19/2018 05:30      1.7       63      4.3       81     56.6     56.9     56.4       84     1014     0.00       29     13.3
    06/19/2018 05:45      1.9      125      4.2      143     56.8     57.0     56.6       85     1014     0.00       46     13.3
    06/19/2018 06:00      2.1      130      5.0      103     56.9     57.2     56.5       84     1014     0.00       57     13.3
    06/19/2018 06:15      1.3       73      4.6      105     56.8     57.2     56.5       84     1014     0.00       84     13.3
    06/19/2018 06:30      1.8       68      4.2       74     57.5     57.8     56.9       82     1014     0.00      124     13.3
    06/19/2018 06:45      1.7       46      3.5       70     58.0     58.4     57.5       81     1014     0.00      138     13.3
    06/19/2018 07:00      1.9      140      3.8      195     58.6     59.1     58.1       79     1014     0.00      159     13.3
    06/19/2018 07:15      1.2      102      3.2      110     59.8     60.9     58.9       74     1014     0.00      299     13.2
    06/19/2018 07:30      1.1      210      3.0      179     62.1     63.2     60.9       68     1014     0.00      422     13.2
    06/19/2018 07:45      1.7      136      4.3      179     63.4     64.6     62.8       65     1014     0.00      454     13.2
    06/19/2018 08:00      1.9      178      5.3      141     64.3     65.0     63.8       62     1014     0.00      514     13.2
    06/19/2018 08:15      1.4       53      4.2       51     65.6     66.9     64.7       58     1014     0.00      562     13.1
    06/19/2018 08:30      2.3      115      5.7      173     67.0     68.3     66.1       56     1014     0.00      607     13.1
    06/19/2018 08:45      1.8      165      5.0      148     67.7     68.7     67.1       55     1014     0.00      649     13.1
    06/19/2018 09:00      1.6      266      5.0      310     68.3     68.9     67.4       53     1014     0.00      684     13.1
    06/19/2018 09:15      1.7      121      3.9      159     69.4     69.7     68.9       52     1014     0.00      721     13.1
    06/19/2018 09:30      1.6      153      5.6      154     70.2     70.9     69.4       50     1013     0.00      755     13.1
    06/19/2018 09:45      2.4       59      5.2       47     71.0     71.7     70.3       49     1013     0.00      787     13.0
    06/19/2018 10:00      2.4       76      5.7       90     71.6     72.9     71.0       46     1013     0.00      816     13.0
    06/19/2018 10:15      2.2      207      5.9      175     73.1     74.4     72.2       45     1013     0.00      841     13.0
    06/19/2018 10:30      2.2      192      4.9       52     74.3     74.8     73.7       43     1013     0.00      863     13.0
    06/19/2018 10:45      3.1      112      7.2       64     75.1     75.9     74.5       40     1013     0.00      881     13.0
    06/19/2018 11:00      2.5      136      7.0      135     76.6     77.1     75.7       36     1013     0.00      897     13.0
    06/19/2018 11:15      2.3      141      6.0      184     77.1     77.8     76.3       35     1013     0.00      908     13.0
    06/19/2018 11:30      2.7       96      6.2      104     78.8     79.9     77.7       36     1013     0.00      916     13.0
    06/19/2018 11:45      3.3      161     10.6      150     79.8     80.4     79.2       38     1013     0.00      920     13.0
    06/19/2018 12:00      5.8      159      9.3      142     80.7     81.4     79.9       36     1013     0.00      920     13.0
    06/19/2018 12:15      3.6      109      8.6       89     80.6     81.4     79.7       38     1013     0.00      921     13.0
    06/19/2018 12:30      4.2      126     11.1      139     80.5     81.7     79.6       35     1013     0.00      917     13.0
    06/19/2018 12:45      2.9      102      6.9       93     81.1     82.0     80.6       35     1013     0.00      910     13.0
    06/19/2018 13:00      4.7      115      9.3      132     82.1     82.4     81.7       36     1012     0.00      900     12.9
    06/19/2018 13:15      4.0      123     10.3       96     82.1     82.9     81.7       34     1012     0.00      887     12.9
    06/19/2018 13:30      3.4      110      7.8      120     83.1     83.8     82.6       32     1012     0.00      870     12.9
    06/19/2018 13:45      5.5       97     10.4       90     83.2     84.0     82.9       33     1012     0.00      851     12.9
    06/19/2018 14:00      5.1      115      9.8       97     82.9     83.6     82.4       35     1012     0.00      824     12.9
    06/19/2018 14:15      4.7      123     10.0      165     82.8     83.7     82.3       34     1012     0.00      800     12.9
    06/19/2018 14:30      3.5      114      8.6       89     83.6     84.1     83.2       33     1012     0.00      743     12.9
    06/19/2018 14:45      4.7      105      9.3       89     83.2     83.8     82.4       33     1012     0.00      739     12.9
    06/19/2018 15:00      4.0      104      8.3       90     83.5     84.0     82.7       34     1011     0.00      704     12.9
    06/19/2018 15:15      4.0       91      7.7       93     83.7     84.1     83.2       34     1011     0.00      666     12.9
    06/19/2018 15:30      4.2      118      9.9      137     83.6     84.3     83.1       35     1011     0.00      626     12.9
    06/19/2018 15:45      5.1      123     11.2      141     83.0     83.8     82.2       36     1011     0.00      581     12.9
    06/19/2018 16:00      4.5      102      9.6       86     82.2     82.9     81.7       36     1011     0.00      536     12.9
    06/19/2018 16:15      3.6      104      8.4      128     81.5     82.0     81.0       37     1011     0.00      491     12.9
    06/19/2018 16:30      4.5       92     10.3       82     80.9     81.5     80.2       37     1011     0.00      445     12.9
    06/19/2018 16:45      3.4      119      7.2      140     80.7     81.2     80.0       37     1011     0.00      399     12.9
    06/19/2018 17:00      3.6       90      7.9       74     80.9     81.4     80.6       37     1011     0.00      350     12.9
    06/19/2018 17:15      3.3      101      6.9       63     80.4     81.0     80.1       37     1011     0.00      302     12.9
    06/19/2018 17:30      4.0       93      8.3       78     79.5     80.3     78.8       40     1011     0.00      209     12.9
    06/19/2018 17:45      4.3       99      9.9       90     78.1     79.0     77.3       42     1011     0.00       40     13.0
    06/19/2018 18:00      3.9      103      9.4       79     76.9     77.5     76.2       43     1011     0.00       35     13.0
    06/19/2018 18:15      4.2      100      9.7      105     75.6     76.5     75.2       45     1011     0.00       30     13.0
    06/19/2018 18:30      3.7       92      7.5       84     74.9     75.3     74.3       47     1011     0.00       26     13.0
    06/19/2018 18:45      4.5       87      8.6       85     73.5     74.4     72.8       50     1011     0.00       24     13.1
    06/19/2018 19:00      3.5       91      9.6       82     72.5     72.8     72.1       51     1012     0.00       11     13.1
    06/19/2018 19:15      4.1       90      8.7       95     71.3     72.2     70.6       53     1012     0.00        4     13.1
    06/19/2018 19:30      3.6       90      7.1       92     70.1     70.8     69.5       56     1012     0.00        0     13.1
    06/19/2018 19:45      5.6       72      9.9       87     68.9     69.6     68.3       57     1012     0.00        0     13.1
    06/19/2018 20:00      5.3       70      9.9       53     67.7     68.4     67.1       60     1012     0.00        0     13.1
    06/19/2018 20:15      5.1       77     11.0       67     66.9     67.3     66.6       62     1013     0.00        0     13.1
    06/19/2018 20:30      4.4       81      8.0       45     66.5     66.8     66.2       63     1013     0.00        0     13.2
    06/19/2018 20:45      3.2       80      6.0       73     66.2     66.5     65.9       64     1013     0.00        0     13.2
    06/19/2018 21:00      3.1       71      5.9       46     65.8     66.2     65.5       65     1013     0.00        0     13.2
    06/19/2018 21:15      2.9       63      4.8       54     65.4     65.7     65.1       66     1013     0.00        0     13.2
    06/19/2018 21:30      3.1       66      6.0       56     65.2     65.4     64.9       67     1013     0.00        0     13.2
    06/19/2018 21:45      2.3       79      4.9       46     64.8     65.1     64.6       68     1013     0.00        0     13.2
    06/19/2018 22:00      2.1       84      4.4       89     64.6     64.8     64.4       68     1013     0.00        0     13.2
    06/19/2018 22:15      1.8       95      4.0       73     64.3     64.6     64.1       69     1013     0.00        0     13.2
    06/19/2018 22:30      1.2       97      3.6       78     63.9     64.2     63.6       70     1013     0.00        0     13.2
    06/19/2018 22:45      1.4      120      3.8      167     63.6     63.9     63.2       72     1013     0.00        0     13.2
    06/19/2018 23:00      1.5      101      3.2      148     63.1     63.3     62.8       73     1013     0.00        0     13.2
    06/19/2018 23:15      1.3      124      4.4      105     62.7     63.0     62.4       74     1013     0.00        0     13.2
    06/19/2018 23:30      1.5      111      3.8       91     62.3     62.5     62.1       74     1013     0.00        0     13.2
    06/19/2018 23:45      1.5       90      3.4      100     62.0     62.3     61.6       75     1013     0.00        0     13.2
    06/20/2018 00:00      1.2       92      2.9       51     61.7     62.0     61.5       76     1013     0.00        0     13.3
    06/20/2018 00:15      1.8      155      2.7      147     61.1     61.6     60.7       77     1013     0.00        0     13.3
    06/20/2018 00:30      1.1      147      2.6      127     60.7     60.9     60.4       78     1012     0.00        0     13.3
    06/20/2018 00:45      1.7      156      2.3      155     60.4     60.7     60.1       79     1012     0.00        0     13.3
    06/20/2018 01:00      1.6      163      2.6      160     60.2     60.4     59.9       80     1012     0.00        0     13.3
    06/20/2018 01:15      1.0      157      2.5      164     59.9     60.2     59.6       81     1012     0.00        0     13.3
    06/20/2018 01:30      0.4      161      1.6      166     59.7     59.9     59.5       82     1012     0.00        0     13.3
    06/20/2018 01:45      0.1      296      1.2      293     59.6     59.8     59.4       82     1012     0.00        0     13.3
    06/20/2018 02:00      0.1       38      1.5       37     59.5     59.8     59.2       82     1012     0.00        0     13.3
    06/20/2018 02:15      0.0       37      0.2       37     59.5     59.7     59.3       82     1011     0.00        0     13.3
    06/20/2018 02:30      0.4      270      1.2      264     59.3     59.6     59.1       82     1011     0.00        0     13.3
    06/20/2018 02:45      0.1      277      1.0      277     59.1     59.3     58.9       83     1011     0.00        0     13.3
    06/20/2018 03:00      0.3      280      1.6      244     59.0     59.2     58.7       83     1011     0.00        0     13.3
    06/20/2018 03:15      0.9      208      1.9      209     58.8     59.1     58.4       83     1011     0.00        0     13.3
    06/20/2018 03:30      0.8      173      2.1      179     58.5     58.8     58.2       84     1011     0.00        0     13.3
    06/20/2018 03:45      0.4       72      1.4       74     58.4     58.9     58.1       85     1011     0.00        0     13.3
    06/20/2018 04:00      1.9       69      2.8       71     59.0     59.2     58.7       83     1011     0.00        0     13.3
    06/20/2018 04:15      1.1       57      2.5       59     59.0     59.2     58.8       83     1011     0.00        0     13.3
    06/20/2018 04:30      0.7      308      1.4      305     58.5     58.9     58.1       84     1011     0.00        0     13.3
    06/20/2018 04:45      0.3      277      1.6      267     57.9     58.3     57.5       84     1011     0.00        2     13.3
    06/20/2018 05:00      0.0        0      0.0      265     57.5     57.8     57.2       85     1012     0.00        6     13.3
    06/20/2018 05:15      0.2      147      1.4      147     57.8     58.1     57.5       86     1012     0.00       15     13.3
    06/20/2018 05:30      0.3       62      1.8       69     58.2     58.5     57.8       86     1012     0.00       24     13.3
    06/20/2018 05:45      1.3       65      2.2       66     59.1     59.7     58.2       84     1012     0.00       34     13.3
    06/20/2018 06:00      0.9       91      2.5      177     60.9     62.4     59.6       78     1012     0.00      131     13.3
    06/20/2018 06:15      1.1       74      2.8       61     63.0     63.4     62.2       74     1012     0.00      176     13.3
    06/20/2018 06:30      1.4       72      3.3       89     63.9     64.8     63.2       70     1012     0.00      224     13.2
    06/20/2018 06:45      0.9       62      2.9       84     65.2     66.0     64.5       67     1012     0.00      270     13.2
    06/20/2018 07:00      1.2      229      3.4      185     65.3     65.9     64.9       67     1012     0.00      317     13.2
    06/20/2018 07:15      1.3      210      3.3      165     66.2     66.9     65.7       65     1013     0.00      365     13.2
    06/20/2018 07:30      1.3      216      2.8      214     67.2     68.1     66.7       64     1013     0.00      414     13.1
    06/20/2018 07:45      1.9      151      4.4      170     69.0     69.8     68.0       59     1013     0.00      450     13.1
    06/20/2018 08:00      1.2      259      3.9      143     69.4     70.2     68.6       59     1013     0.00      512     13.1
    06/20/2018 08:15      1.4      165      4.0      176     70.4     70.7     70.0       58     1013     0.00      555     13.1
    06/20/2018 08:30      1.6      161      4.6      185     71.9     72.8     70.6       54     1013     0.00      600     13.1
    06/20/2018 08:45      1.5      144      4.2       88     72.5     73.3     71.5       53     1013     0.00      641     13.1
    06/20/2018 09:00      1.8      164      4.8      129     73.8     74.2     73.1       51     1013     0.00      683     13.0
    06/20/2018 09:15      2.1       92      5.1      153     74.4     75.3     73.7       49     1012     0.00      719     13.0
    06/20/2018 09:30      2.2      181      4.8      136     75.6     76.4     75.0       47     1012     0.00      752     13.0
    06/20/2018 09:45      2.3       99      5.6      143     76.7     77.3     76.1       46     1012     0.00      784     13.0
    06/20/2018 10:00      2.4      121      5.7      139     77.8     78.2     77.3       43     1012     0.00      814     13.0
    06/20/2018 10:15      3.0      167      6.5      135     79.1     80.2     77.7       41     1012     0.00      841     13.0
    06/20/2018 10:30      3.0      147      7.0       62     79.7     80.2     79.2       41     1012     0.00      863     13.0
    06/20/2018 10:45      2.7      138      5.8       60     80.5     81.9     79.5       37     1012     0.00      881     13.0
    06/20/2018 11:00      3.1       80      7.5       73     81.3     81.9     80.8       38     1012     0.00      895     13.0
    06/20/2018 11:15      3.0       99      7.2      113     82.3     83.0     81.2       36     1012     0.00      906     12.9
    06/20/2018 11:30      3.6      143      7.0      133     83.7     84.9     82.2       35     1012     0.00      914     12.9
    06/20/2018 11:45      2.9      101      7.7      155     84.1     84.9     83.2       36     1012     0.00      920     12.9
    06/20/2018 12:00      4.3      146      8.9      141     85.2     86.0     84.0       34     1012     0.00      923     12.9
    06/20/2018 12:15      3.9      134      8.1       93     85.1     85.8     84.3       34     1012     0.00      921     12.9
    06/20/2018 12:30      3.5       94      8.2       84     85.9     86.9     85.3       32     1011     0.00      919     12.9
    06/20/2018 12:45      3.3       72      7.1       82     86.5     87.4     85.6       31     1011     0.00      911     12.9
    06/20/2018 13:00      2.6      100      5.8       55     87.3     88.6     86.5       30     1011     0.00      905     12.9
    06/20/2018 13:15      2.9       92      7.8      105     88.4     88.9     88.0       31     1011     0.00      891     12.9
    06/20/2018 13:30      2.6       77      7.6       95     88.8     89.6     88.1       30     1011     0.00      874     12.9
    06/20/2018 13:45      4.2      152      8.6      143     89.7     91.2     88.7       28     1011     0.00      854     12.9
    06/20/2018 14:00      3.8      152      9.5       77     91.5     91.9     91.0       28     1011     0.00      829     12.9
    06/20/2018 14:15      3.2      119      7.5      174     91.3     91.7     90.5       28     1010     0.00      804     12.9
    06/20/2018 14:30      3.7      110      8.2      125     91.7     92.2     91.1       28     1010     0.00      745     12.9
    06/20/2018 14:45      3.4      103      7.8      102     91.4     91.9     90.8       29     1010     0.00      735     12.9
    06/20/2018 15:00      3.9      118      8.8       95     91.0     91.6     90.5       31     1010     0.00      699     12.9
    06/20/2018 15:15      3.6      109      9.6       92     90.7     91.2     90.1       30     1010     0.00      662     12.9
    06/20/2018 15:30      4.9      126     10.5      132     89.4     90.2     88.5       31     1010     0.00      624     12.9
    06/20/2018 15:45      4.1      120      9.0       87     88.4     88.8     87.7       34     1010     0.00      581     12.9
    06/20/2018 16:00      4.2      107      9.7       89     88.1     89.1     87.1       32     1010     0.00      540     12.9
    06/20/2018 16:15      4.1       90      9.3       77     86.8     87.3     86.1       34     1010     0.00      493     12.9
    06/20/2018 16:30      3.4      113      9.1      135     86.3     86.7     85.8       35     1010     0.00      447     12.9
    06/20/2018 16:45      5.3       88      8.8       95     84.9     86.2     84.0       37     1010     0.00      400     12.9
    06/20/2018 17:00      4.4      105      8.9       95     83.5     84.0     83.2       38     1010     0.00      350     12.9
    06/20/2018 17:15      3.5      115     10.0      108     82.4     83.5     81.8       41     1010     0.00      302     12.9
    06/20/2018 17:30      4.4       92      8.4       77     81.0     82.1     79.7       44     1010     0.00      213     12.9
    06/20/2018 17:45      4.1      113      9.0       90     79.3     79.9     78.5       46     1010     0.00       40     12.9
    06/20/2018 18:00      3.3      110      8.5      105     77.8     78.5     76.9       48     1011     0.00       36     13.0
    06/20/2018 18:15      4.6       92      9.4       76     76.3     77.2     75.4       51     1011     0.00       31     13.0
    06/20/2018 18:30      4.8       92      9.8       84     74.5     75.5     73.6       54     1011     0.00       27     13.0
    06/20/2018 18:45      4.3       92      8.9       98     73.0     73.7     72.0       57     1011     0.00       26     13.0
    06/20/2018 19:00      4.2       87      9.2       95     71.6     72.3     70.9       59     1011     0.00       12     13.1
    06/20/2018 19:15      5.5       74      9.1       67     70.5     71.1     70.1       61     1012     0.00        4     13.1
    06/20/2018 19:30      3.6       80      7.1      100     70.0     70.4     69.5       62     1012     0.00        1     13.1
    06/20/2018 19:45      2.9      102      7.0       62     68.9     69.7     68.4       65     1012     0.00        0     13.1
    06/20/2018 20:00      4.6       73      8.4       63     68.0     68.6     67.4       67     1012     0.00        0     13.1
    06/20/2018 20:15      3.2       91      6.8       88     67.3     67.6     66.9       68     1012     0.00        0     13.1
    06/20/2018 20:30      2.9       88      6.0       96     66.7     67.1     66.3       69     1012     0.00        0     13.2
    06/20/2018 20:45      3.0       96      6.5       97     66.1     66.5     65.7       71     1012     0.00        0     13.2
    06/20/2018 21:00      2.7       95      5.7       83     65.6     65.9     65.4       72     1013     0.00        0     13.2
    06/20/2018 21:15      2.2       98      5.7       88     65.3     65.6     64.9       73     1013     0.00        0     13.2
    06/20/2018 21:30      2.0      109      5.0      124     64.9     65.2     64.5       74     1013     0.00        0     13.2
    06/20/2018 21:45      2.6       91      6.1      107     64.3     64.7     63.9       76     1013     0.00        0     13.2
    06/20/2018 22:00      2.7      100      5.2       76     63.7     64.2     63.2       77     1013     0.00        0     13.2
    06/20/2018 22:15      2.6       84      5.2       75     63.1     63.4     62.7       79     1013     0.00        0     13.2
    06/20/2018 22:30      2.3      106      6.4       87     62.7     63.0     62.4       80     1013     0.00        0     13.2
    06/20/2018 22:45      2.0      112      5.0      157     62.5     62.8     62.3       81     1013     0.00        0     13.2
    06/20/2018 23:00      2.4       87      5.7       79     62.5     62.7     62.3       81     1013     0.00        0     13.2
    06/20/2018 23:15      2.4       91      4.8       59     62.5     62.7     62.3       82     1013     0.00        0     13.2
    06/20/2018 23:30      2.2      119      4.8      145     62.9     63.1     62.5       81     1013     0.00        0     13.2
    06/20/2018 23:45      2.4      124      5.2      106     63.0     63.2     62.8       81     1013     0.00        0     13.2
    06/21/2018 00:00      1.9      114      4.6       91     63.2     63.5     63.0       80     1013     0.00        0     13.2
    06/21/2018 00:15      2.5      134      5.1       59     63.2     63.5     63.0       80     1013     0.00        0     13.2
    06/21/2018 00:30      2.6      154      4.3      169     63.1     63.3     62.8       81     1013     0.00        0     13.2
    06/21/2018 00:45      1.6      150      4.3      150     63.2     63.4     63.0       80     1012     0.00        0     13.2
    06/21/2018 01:00      1.8      133      4.1      160     63.3     63.5     63.1       80     1012     0.00        0     13.2
    06/21/2018 01:15      2.5      170      5.0      164     63.3     63.6     63.0       80     1012     0.00        0     13.2
    06/21/2018 01:30      1.1      150      2.5      159     63.1     63.4     62.9       80     1012     0.00        0     13.2
    06/21/2018 01:45      1.2      111      3.2      147     63.4     63.6     63.1       79     1012     0.00        0     13.2
    06/21/2018 02:00      2.0      115      5.5       68     63.4     63.6     63.2       79     1012     0.00        0     13.2
    06/21/2018 02:15      1.1       57      3.8       90     63.5     63.7     63.3       79     1012     0.00        0     13.2
    06/21/2018 02:30      1.6       23      3.1       -0     63.5     63.7     63.3       79     1012     0.00        0     13.2
    06/21/2018 02:45      1.1       57      3.1      147     63.3     63.6     63.0       79     1012     0.00        0     13.2
    06/21/2018 03:00      1.7      172      4.8      151     62.9     63.2     62.5       81     1012     0.00        0     13.2
    06/21/2018 03:15      1.4      148      2.5      146     62.5     62.8     62.2       81     1012     0.00        0     13.2
    06/21/2018 03:30      1.3      155      2.7      163     62.3     62.5     62.1       82     1012     0.00        0     13.2
    06/21/2018 03:45      1.8      124      3.9       93     62.6     63.0     62.3       81     1012     0.00        0     13.2
    06/21/2018 04:00      1.9      105      5.0       64     62.8     63.0     62.6       81     1012     0.00        0     13.2
    06/21/2018 04:15      1.1      260      3.7      187     62.6     62.8     62.4       82     1012     0.00        0     13.2
    06/21/2018 04:30      0.8      261      2.5      258     62.8     63.0     62.5       82     1012     0.00        0     13.2
    06/21/2018 04:45      1.9      124      5.5      126     63.0     63.2     62.9       81     1012     0.00        1     13.2
    06/21/2018 05:00      1.4       68      3.2       88     62.9     63.2     62.7       81     1012     0.00        4     13.2
    06/21/2018 05:15      1.3       87      3.9       35     63.0     63.3     62.7       81     1012     0.00       10     13.2
    06/21/2018 05:30      1.3      192      3.7      148     62.9     63.1     62.7       81     1012     0.00       20     13.2
    06/21/2018 05:45      0.9      134      3.4      142     63.1     63.4     62.8       80     1012     0.00       40     13.2
    06/21/2018 06:00      2.0      228      4.7      244     63.3     63.5     63.0       80     1012     0.00       59     13.2
    06/21/2018 06:15      0.9      340      2.6      299     63.4     63.7     63.1       79     1013     0.00       77     13.2
    06/21/2018 06:30      0.9      224      2.7      179     63.9     64.3     63.4       78     1013     0.00      113     13.2
    06/21/2018 06:45      1.5      205      4.1      158     64.5     65.1     64.0       76     1013     0.00      157     13.2
    06/21/2018 07:00      2.7      166      6.7      167     65.4     65.7     64.9       74     1013     0.00      214     13.2
    06/21/2018 07:15      1.7      192      3.6      197     66.0     66.8     65.0       72     1013     0.00      329     13.2
    06/21/2018 07:30      2.2      163      6.0      169     67.9     68.8     66.5       67     1013     0.00      388     13.1
    06/21/2018 07:45      2.1      133      4.3      185     69.3     70.1     68.4       64     1013     0.00      423     13.1
    06/21/2018 08:00      3.0      144      5.9      147     69.4     70.1     68.8       65     1013     0.00      494     13.1
    06/21/2018 08:15      2.6      141      6.2      157     70.3     71.1     69.2       62     1013     0.00      538     13.1
    06/21/2018 08:30      2.3      184      7.0      166     72.0     73.5     71.0       58     1013     0.00      583     13.1
    06/21/2018 08:45      2.9      149      6.4      167     73.3     74.2     72.8       58     1013     0.00      629     13.1
    06/21/2018 09:00      2.8      121      6.6       61     73.3     73.8     72.6       58     1013     0.00      662     13.0
    06/21/2018 09:15      3.2      133      7.1      174     73.6     74.2     73.0       56     1013     0.00      706     13.0
    06/21/2018 09:30      2.6      103      7.1       47     74.5     75.2     73.8       54     1013     0.00      742     13.0
    06/21/2018 09:45      2.7      101      7.3       92     75.1     75.8     74.4       52     1013     0.00      774     13.0
    06/21/2018 10:00      2.9      100      6.0       68     75.7     76.5     75.1       53     1013     0.00      806     13.0
    06/21/2018 10:15      2.8      134      7.2      191     76.8     77.7     76.2       50     1013     0.00      834     13.0
    06/21/2018 10:30      3.3      116      8.0      139     77.8     79.1     76.9       47     1013     0.00      856     13.0
    06/21/2018 10:45      3.0      142      7.1      159     79.8     80.8     79.0       45     1013     0.00      875     13.0
    06/21/2018 11:00      2.8      156      8.3      133     80.4     81.5     79.5       45     1013     0.00      890     13.0
    06/21/2018 11:15      3.7      148      8.7      133     81.4     82.3     80.6       42     1013     0.00      900     13.0
    06/21/2018 11:30      3.1      117      7.7      158     81.6     82.3     80.8       43     1013     0.00      910     12.9
    06/21/2018 11:45      3.1      101      9.0       93     81.8     82.8     81.2       41     1012     0.00      914     12.9
    06/21/2018 12:00      4.7      133      9.1      126     82.8     84.0     82.1       41     1012     0.00      915     12.9
    06/21/2018 12:15      3.9      125      7.5       75     83.4     84.0     82.3       39     1012     0.00      914     12.9
    06/21/2018 12:30      3.6      104      8.6      136     84.3     84.9     83.7       38     1012     0.00      912     12.9
    06/21/2018 12:45      3.7      106     10.7       79     84.2     84.8     83.7       39     1012     0.00      905     12.9
    06/21/2018 13:00      4.1      103     10.7      138     85.2     86.0     84.3       36     1012     0.00      896     12.9
    06/21/2018 13:15      4.2      147      8.9      155     85.5     86.3     84.5       35     1012     0.00      881     12.9
    06/21/2018 13:30      3.7      101      7.3       97     86.0     86.4     85.6       35     1012     0.00      865     12.9
    06/21/2018 13:45      3.9      127     10.7      156     86.9     87.7     86.1       34     1011     0.00      846     12.9
    06/21/2018 14:00      4.4      129     12.5      164     87.0     88.0     86.1       34     1011     0.00      822     12.9
    06/21/2018 14:15      4.8      119      9.7       89     87.0     87.5     86.6       33     1011     0.00      795     12.9
    06/21/2018 14:30      4.1      110      8.8      176     87.2     88.1     86.6       35     1011     0.00      742     12.9
    06/21/2018 14:45      4.3      101      8.3       94     87.7     88.5     87.1       33     1011     0.00      735     12.9
    06/21/2018 15:00      4.1      109      8.6       63     88.0     88.4     87.3       33     1011     0.00      698     12.9
    06/21/2018 15:15      4.7      144     10.7      154     88.5     89.4     87.9       33     1011     0.00      659     12.9
    06/21/2018 15:30      3.5      129      7.1       89     88.1     88.5     87.7       33     1010     0.00      618     12.9
    06/21/2018 15:45      4.3      106      9.3       89     87.1     88.1     86.4       34     1010     0.00      575     12.9
    06/21/2018 16:00      4.0      107      9.7       94     86.8     87.6     86.2       36     1010     0.00      534     12.9
    06/21/2018 16:15      4.3      112      9.4       87     85.6     86.4     84.7       39     1010     0.00      487     12.9
    06/21/2018 16:30      4.2      111     10.4       81     84.5     85.2     83.6       39     1010     0.00      442     12.9
    06/21/2018 16:45      4.4      104      8.4       75     83.3     84.1     82.5       41     1010     0.00      395     12.9
    06/21/2018 17:00      3.3      108      8.0       79     82.5     82.9     81.9       42     1010     0.00      346     12.9
    06/21/2018 17:15      3.0      118      7.2       87     82.2     82.6     81.4       43     1010     0.00      293     12.9
    06/21/2018 17:30      4.6       98      8.9       67     80.6     81.5     79.7       45     1010     0.00      210     12.9
    06/21/2018 17:45      5.2       80     10.5       57     78.8     79.8     78.2       48     1011     0.00       45     12.9
    06/21/2018 18:00      5.2       90      9.8       92     77.6     78.3     77.0       50     1011     0.00       39     13.0
    06/21/2018 18:15      5.1       71      9.3       91     76.6     77.1     76.1       51     1011     0.00       32     13.0
    06/21/2018 18:30      2.8       92      9.4       79     76.2     76.4     75.9       52     1011     0.00       27     13.0
    06/21/2018 18:45      4.1       78      7.7       81     75.3     76.3     74.6       54     1011     0.00       24     13.0
    06/21/2018 19:00      3.5       98      7.7       97     74.2     74.8     73.4       57     1011     0.00       12     13.1
    06/21/2018 19:15      3.3       82      7.8       84     72.8     73.6     72.1       59     1011     0.00        4     13.1
    06/21/2018 19:30      4.2       83      7.3       80     71.8     72.4     71.3       61     1011     0.00        0     13.1
    06/21/2018 19:45      3.2       96      5.9      106     71.0     71.5     70.6       62     1011     0.00        0     13.1
    06/21/2018 20:00      3.9       82      7.5       67     70.3     70.7     69.8       64     1011     0.00        0     13.1
    06/21/2018 20:15      4.7       66      7.8       87     69.3     69.9     68.7       66     1012     0.00        0     13.1
    06/21/2018 20:30      4.0       75      7.5       75     68.7     68.9     68.5       67     1012     0.00        0     13.1
    06/21/2018 20:45      2.6       80      4.9       79     68.5     68.8     68.2       67     1012     0.00        0     13.1
    06/21/2018 21:00      2.3       87      4.9       76     68.0     68.4     67.7       68     1012     0.00        0     13.2
    06/21/2018 21:15      2.2       87      4.9      117     67.6     67.9     67.3       69     1012     0.00        0     13.2
    06/21/2018 21:30      3.1       76      6.0       90     67.2     67.6     66.9       70     1012     0.00        0     13.2
    06/21/2018 21:45      2.4       69      4.6       76     66.8     67.1     66.5       71     1012     0.00        0     13.2
    06/21/2018 22:00      1.7      111      4.6       86     66.5     66.8     66.2       71     1012     0.00        0     13.2
    06/21/2018 22:15      1.4      142      3.1      160     65.9     66.3     65.5       74     1012     0.00        0     13.2
    06/21/2018 22:30      2.0      107      5.0       67     65.5     65.7     65.2       74     1012     0.00        0     13.2
    06/21/2018 22:45      1.9      118      4.1      140     65.0     65.4     64.5       76     1012     0.00        0     13.2
    06/21/2018 23:00      1.8      123      3.9       87     64.3     64.8     64.0       78     1012     0.00        0     13.2
    06/21/2018 23:15      2.0      110      5.0       77     63.9     64.2     63.5       79     1012     0.00        0     13.2
    06/21/2018 23:30      2.4      110      6.6      100     63.2     63.6     62.9       81     1012     0.00        0     13.2
    06/21/2018 23:45      2.2      101      6.5       86     62.7     63.2     62.4       83     1012     0.00        0     13.2
    06/22/2018 00:00      2.6       86      7.0       78     62.5     62.9     62.2       83     1012     0.00        0     13.2
    06/22/2018 00:15      2.3      109      7.1       88     62.3     62.6     62.1       84     1012     0.00        0     13.2
    06/22/2018 00:30      1.5      123      4.6      173     62.5     62.8     62.1       84     1012     0.00        0     13.2
    06/22/2018 00:45      1.5      106      3.7       65     62.8     63.0     62.5       83     1012     0.00        0     13.2
    06/22/2018 01:00      1.6      146      3.4      163     62.8     63.0     62.5       84     1012     0.00        0     13.2
    06/22/2018 01:15      1.8      108      4.9       42     62.6     62.8     62.4       84     1012     0.00        0     13.2
    06/22/2018 01:30      1.5        8      3.9       29     62.6     62.8     62.4       84     1012     0.00        0     13.2
    06/22/2018 01:45      1.3       48      4.4       52     62.4     62.7     62.2       84     1012     0.00        0     13.2
    06/22/2018 02:00      0.8      207      2.6      177     62.4     62.7     62.1       84     1011     0.00        0     13.2
    06/22/2018 02:15      2.6       44      5.0       55     62.4     62.7     62.1       84     1011     0.00        0     13.2
    06/22/2018 02:30      1.8      355      4.3      342     62.3     62.5     62.1       84     1011     0.00        0     13.2
    06/22/2018 02:45      1.3      346      3.1      344     62.6     62.9     62.4       84     1011     0.00        0     13.2
    06/22/2018 03:00      1.2      311      4.0       23     62.4     62.8     62.0       85     1011     0.00        0     13.2
    06/22/2018 03:15      1.4      171      3.6      165     62.4     62.7     62.2       85     1011     0.00        0     13.2
    06/22/2018 03:30      1.6      172      3.6      149     62.7     62.9     62.4       84     1011     0.00        0     13.2
    06/22/2018 03:45      2.6      160      4.4      149     62.8     63.1     62.5       84     1011     0.00        0     13.2
    06/22/2018 04:00      0.7      180      2.4      144     62.7     62.8     62.5       84     1011     0.00        0     13.2
    06/22/2018 04:15      1.6      164      5.1      154     62.8     63.0     62.5       84     1011     0.00        0     13.2
    06/22/2018 04:30      1.7      137      3.5      154     62.9     63.1     62.7       84     1011     0.00        0     13.2
    06/22/2018 04:45      1.9      129      5.5      144     62.8     63.1     62.5       83     1011     0.00        0     13.2
    06/22/2018 05:00      1.1      196      2.5      171     62.7     63.0     62.4       84     1011     0.00        3     13.2
    06/22/2018 05:15      1.5      101      5.0      101     63.0     63.3     62.7       83     1011     0.00        7     13.2
    06/22/2018 05:30      0.6      188      2.6       96     63.1     63.4     63.0       83     1011     0.00       13     13.2
    06/22/2018 05:45      1.5      148      3.4      135     63.3     63.6     63.1       82     1012     0.00       19     13.2
    06/22/2018 06:00      0.5      155      2.8      114     63.5     63.8     63.3       81     1012     0.00       35     13.2
    06/22/2018 06:15      0.6      138      2.9      156     63.8     64.1     63.4       81     1011     0.00       52     13.2
    06/22/2018 06:30      1.6      161      4.0      157     64.3     64.6     63.9       79     1011     0.00       69     13.2
    06/22/2018 06:45      1.0      211      2.5      210     64.5     64.7     64.3       78     1012     0.00       91     13.2
    06/22/2018 07:00      1.7      110      3.8       77     64.9     65.3     64.4       77     1012     0.00      120     13.2
    06/22/2018 07:15      1.5      101      4.6      142     65.1     65.6     64.8       75     1012     0.00      170     13.2
    06/22/2018 07:30      2.7      141      5.0      160     65.9     66.2     65.4       74     1012     0.00      184     13.2
    06/22/2018 07:45      0.8      133      3.3       92     66.3     67.0     65.8       72     1012     0.00      212     13.2
    06/22/2018 08:00      1.9       72      3.8       63     66.7     67.1     66.3       71     1012     0.00      256     13.1
    06/22/2018 08:15      1.8      181      4.1      146     67.0     67.3     66.7       72     1012     0.00      253     13.1
    06/22/2018 08:30      2.4      159      6.0      151     67.6     68.4     66.9       68     1012     0.00      308     13.1
    06/22/2018 08:45      2.5      137      7.0      171     69.2     70.5     68.3       64     1012     0.00      582     13.1
    06/22/2018 09:00      3.2      177      6.1      160     70.7     71.3     70.2       64     1012     0.00      645     13.1
    06/22/2018 09:15      2.1       76      5.7       76     71.5     73.3     70.6       57     1012     0.00      708     13.1
    06/22/2018 09:30      2.1      163      5.0      180     72.5     73.2     71.8       58     1012     0.00      740     13.0
    06/22/2018 09:45      1.8      238      4.6       60     74.2     74.9     72.8       54     1012     0.00      776     13.0
    06/22/2018 10:00      2.8      108      6.8      163     75.2     75.9     74.4       53     1011     0.00      801     13.0
    06/22/2018 10:15      2.4      128      6.9      164     76.6     77.6     74.9       50     1011     0.00      829     13.0
    06/22/2018 10:30      3.5      148      8.2      146     77.3     77.9     76.4       53     1011     0.00      852     13.0
    06/22/2018 10:45      3.4      147      7.9      142     78.9     79.5     78.0       49     1011     0.00      870     13.0
    06/22/2018 11:00      3.0      129      7.6      147     79.5     80.7     78.5       46     1011     0.00      889     13.0
    06/22/2018 11:15      3.0       95      6.1       56     79.8     80.9     79.0       45     1011     0.00      900     13.0
    06/22/2018 11:30      2.8       92      6.6      150     80.7     81.4     79.6       43     1011     0.00      912     13.0
    06/22/2018 11:45      2.4       91      5.9       92     81.0     82.2     79.9       40     1010     0.00      922     13.0
    06/22/2018 12:00      2.6      153      7.1       67     83.1     84.2     81.7       38     1010     0.00      925     12.9
    06/22/2018 12:15      3.1       96      7.8       76     84.0     84.6     83.2       36     1010     0.00      922     12.9
    06/22/2018 12:30      3.2      103      7.1       68     84.9     85.4     84.5       36     1010     0.00      917     12.9
    06/22/2018 12:45      3.0      107      9.2       94     85.8     86.8     84.8       35     1009     0.00      916     12.9
    06/22/2018 13:00      3.3      112      7.9       70     86.6     87.2     86.0       34     1009     0.00      903     12.9
    06/22/2018 13:15      3.0      130      7.6      146     87.3     88.0     86.4       32     1009     0.00      895     12.9
    06/22/2018 13:30      4.4      119      8.9       76     87.9     88.4     87.4       32     1009     0.00      880     12.9
    06/22/2018 13:45      4.0      119      9.0      108     88.6     89.6     87.9       31     1009     0.00      862     12.9
    06/22/2018 14:00      4.0      122      9.3       58     88.9     89.3     88.4       33     1009     0.00      838     12.9
    06/22/2018 14:15      4.6      120     10.1      149     88.7     89.6     88.2       32     1008     0.00      808     12.9
    06/22/2018 14:30      3.6      118      8.9       93     88.6     89.6     88.1       32     1008     0.00      750     12.9
    06/22/2018 14:45      4.5      115      9.5      134     88.3     88.7     87.8       31     1008     0.00      742     12.9
    06/22/2018 15:00      5.3      126     11.1      142     88.3     88.8     87.6       32     1008     0.00      705     12.9
    06/22/2018 15:15      3.0      129      8.5      110     88.6     88.9     88.2       33     1008     0.00      666     12.9
    06/22/2018 15:30      3.5      129      6.9      169     88.6     89.1     88.0       32     1008     0.00      625     12.9
    06/22/2018 15:45      4.0      127      8.7      159     88.0     88.4     87.4       34     1008     0.00      580     12.9
    06/22/2018 16:00      4.8      124     11.2       91     88.0     88.7     86.6       35     1007     0.00      535     12.9
    06/22/2018 16:15      4.5      108      9.1       82     87.1     87.7     86.5       35     1007     0.00      489     12.9
    06/22/2018 16:30      4.3      126      9.3       95     86.8     87.3     86.4       36     1007     0.00      441     12.9
    06/22/2018 16:45      4.2      111      9.8       79     86.3     86.9     85.2       37     1007     0.00      392     12.9
    06/22/2018 17:00      4.1      109      9.1       81     84.9     85.4     84.5       39     1007     0.00      344     12.9
    06/22/2018 17:15      4.6       95      9.6       75     84.3     85.2     83.1       41     1007     0.00      298     12.9
    06/22/2018 17:30      3.9      116      8.7       99     82.6     83.2     81.7       43     1007     0.00      217     12.9
    06/22/2018 17:45      3.2      103      8.6       69     81.1     81.6     80.7       45     1007     0.00       43     12.9
    06/22/2018 18:00      3.3      108      8.1       91     80.2     80.9     79.6       46     1007     0.00       39     13.0
    06/22/2018 18:15      2.9      118      7.6       94     79.3     79.8     78.8       48     1007     0.00       32     13.0
    06/22/2018 18:30      3.1      111      8.1       80     78.1     79.0     77.4       49     1007     0.00       28     13.0